Time;durP1;ratioP1;P1;durP2;ratioP2;P2;SDS_P1;SDS_P2;PMS_P1;PMS_P2;Temp;Humidity;BMP_temperature;BMP_pressure;BME280_temperature;BME280_humidity;BME280_pressure;Samples;Min_cycle;Max_cycle;Signal;HPM_P1;HPM_P2
2023/01/23 00:00:57;;;;;;;18.08;12.73;;;;;;;2.03;100.00;102966.25;6183392;23;20188;-72
2023/01/23 00:03:33;;;;;;;17.15;13.35;;;;;;;2.00;100.00;102963.81;6183643;23;20165;-72
2023/01/23 00:06:07;;;;;;;20.45;12.15;;;;;;;1.96;100.00;102972.97;6186177;23;20193;-72
2023/01/23 00:08:43;;;;;;;19.02;12.20;;;;;;;1.93;100.00;102967.81;6185528;23;20213;-71
2023/01/23 00:11:17;;;;;;;24.17;13.98;;;;;;;1.96;100.00;102967.63;6186859;23;20154;-72
2023/01/23 00:13:50;;;;;;;21.90;14.45;;;;;;;2.02;100.00;102964.56;6185482;23;20563;-74
2023/01/23 00:16:25;;;;;;;24.85;15.63;;;;;;;2.02;100.00;102959.25;6185249;23;20193;-72
2023/01/23 00:18:58;;;;;;;16.05;12.55;;;;;;;1.97;100.00;102964.00;6185687;23;20192;-73
2023/01/23 00:21:31;;;;;;;19.05;12.75;;;;;;;1.88;100.00;102959.25;6185896;23;20169;-72
2023/01/23 00:24:09;;;;;;;19.98;13.85;;;;;;;1.88;100.00;102969.94;6185290;23;20169;-72
2023/01/23 00:26:44;;;;;;;18.17;12.98;;;;;;;1.92;100.00;102963.44;6186850;23;20193;-70
2023/01/23 00:29:15;;;;;;;27.73;14.55;;;;;;;1.89;100.00;102971.63;6160803;23;20761;-73
2023/01/23 00:31:46;;;;;;;24.17;13.70;;;;;;;1.89;100.00;102950.25;6185683;23;20179;-72
2023/01/23 00:34:18;;;;;;;22.95;13.93;;;;;;;1.85;100.00;102975.44;6185255;23;20169;-72
2023/01/23 00:36:52;;;;;;;23.55;14.88;;;;;;;1.86;100.00;102970.97;6186782;23;20264;-75
2023/01/23 00:39:25;;;;;;;22.75;12.77;;;;;;;1.81;100.00;102973.91;6189137;23;20672;-73
2023/01/23 00:41:56;;;;;;;21.15;14.10;;;;;;;1.81;100.00;102973.91;6188468;23;20529;-73
2023/01/23 00:44:30;;;;;;;25.00;14.38;;;;;;;1.90;100.00;102975.16;6176207;23;20170;-72
2023/01/23 00:47:02;;;;;;;19.15;14.18;;;;;;;1.93;100.00;102973.16;6199144;23;20189;-72
2023/01/23 00:49:37;;;;;;;23.63;14.02;;;;;;;1.87;100.00;102978.03;6200366;23;20203;-72
2023/01/23 00:52:09;;;;;;;23.23;14.35;;;;;;;1.88;100.00;102991.28;6198495;23;20176;-71
2023/01/23 00:54:41;;;;;;;23.80;13.82;;;;;;;1.96;100.00;102982.78;6198468;23;20227;-73
2023/01/23 00:57:15;;;;;;;24.60;15.07;;;;;;;1.91;100.00;102980.41;6185664;23;20499;-74
2023/01/23 00:59:50;;;;;;;22.88;13.50;;;;;;;1.89;100.00;102982.28;6183383;23;20176;-73
2023/01/23 01:02:21;;;;;;;20.00;13.32;;;;;;;1.96;100.00;102989.00;6183464;23;20193;-73
2023/01/23 01:04:52;;;;;;;21.73;14.20;;;;;;;1.96;100.00;102982.78;6183115;23;20174;-71
2023/01/23 01:07:26;;;;;;;25.08;14.13;;;;;;;1.99;100.00;102987.94;6183172;23;20186;-73
2023/01/23 01:09:59;;;;;;;20.88;12.88;;;;;;;1.97;100.00;102985.38;6183509;23;20195;-72
2023/01/23 01:12:32;;;;;;;21.42;14.75;;;;;;;1.95;100.00;102991.75;6183699;23;20659;-73
2023/01/23 01:15:07;;;;;;;24.05;14.35;;;;;;;2.01;100.00;102996.72;6183034;23;20211;-72
2023/01/23 01:17:37;;;;;;;26.45;13.63;;;;;;;2.02;100.00;102998.44;6183354;23;20187;-72
2023/01/23 01:20:15;;;;;;;24.33;14.50;;;;;;;1.94;100.00;102987.34;6183100;23;20220;-72
2023/01/23 01:22:50;;;;;;;26.85;15.30;;;;;;;1.93;100.00;102999.88;6183112;23;20169;-72
2023/01/23 01:25:21;;;;;;;29.52;14.75;;;;;;;1.92;100.00;103003.50;6182994;23;20193;-72
2023/01/23 01:27:54;;;;;;;29.20;16.08;;;;;;;1.92;100.00;103000.81;6158591;23;20193;-72
2023/01/23 01:30:28;;;;;;;27.02;16.60;;;;;;;1.91;100.00;103011.59;6158831;23;20173;-73
2023/01/23 01:32:59;;;;;;;20.05;13.73;;;;;;;1.95;100.00;103021.13;6184950;23;20153;-71
2023/01/23 01:35:31;;;;;;;23.13;14.88;;;;;;;1.94;100.00;103017.59;6183513;23;20197;-72
2023/01/23 01:38:09;;;;;;;25.88;15.35;;;;;;;1.89;100.00;103025.03;6160612;23;20241;-72
2023/01/23 01:40:43;;;;;;;21.85;14.63;;;;;;;1.87;100.00;103015.41;6184377;23;20177;-72
2023/01/23 01:43:23;;;;;;;24.17;14.32;;;;;;;1.88;100.00;103019.78;6158573;23;20161;-71
2023/01/23 01:46:26;;;;;;;26.60;14.30;;;;;;;1.89;100.00;103019.69;6183588;23;20193;-72
2023/01/23 01:51:57;;;;;;;25.27;14.88;;;;;;;1.99;100.00;103026.16;5150748;27;20570;-72
2023/01/23 01:54:35;;;;;;;25.15;16.30;;;;;;;2.00;100.00;103027.91;5091939;27;20196;-72
2023/01/23 01:57:09;;;;;;;22.83;15.52;;;;;;;1.96;100.00;103028.19;5064558;27;20220;-72
2023/01/23 01:59:57;;;;;;;22.48;15.45;;;;;;;1.99;100.00;103023.50;5060427;27;20280;-73
2023/01/23 02:02:30;;;;;;;24.98;15.07;;;;;;;1.95;100.00;103019.31;5060469;28;20189;-74
2023/01/23 02:05:04;;;;;;;25.13;14.40;;;;;;;1.93;100.00;103021.22;5073296;28;20248;-74
2023/01/23 02:07:40;;;;;;;24.30;13.45;;;;;;;1.89;100.00;103025.03;5058986;28;20283;-72
2023/01/23 02:10:15;;;;;;;26.90;15.88;;;;;;;1.91;100.00;103033.81;5065639;28;20716;-73
2023/01/23 02:12:47;;;;;;;28.42;13.90;;;;;;;1.95;100.00;103023.78;5046271;28;20196;-71
2023/01/23 02:15:18;;;;;;;26.42;14.55;;;;;;;2.01;100.00;103029.63;5064964;27;20230;-71
2023/01/23 02:17:51;;;;;;;25.42;15.48;;;;;;;1.94;100.00;103022.94;5055059;27;20222;-71
2023/01/23 02:20:24;;;;;;;22.60;14.90;;;;;;;1.93;100.00;103021.22;5121180;27;20184;-72
2023/01/23 02:23:02;;;;;;;19.52;13.98;;;;;;;1.97;100.00;103032.56;5050811;28;20201;-71
2023/01/23 02:25:40;;;;;;;24.98;14.63;;;;;;;1.91;100.00;103027.59;5053324;28;20252;-72
2023/01/23 02:28:12;;;;;;;23.08;13.70;;;;;;;2.05;100.00;103036.47;5048220;28;20188;-70
2023/01/23 02:30:45;;;;;;;25.38;15.15;;;;;;;1.93;100.00;103036.41;5062514;28;20649;-71
2023/01/23 02:33:47;;;;;;;27.20;15.00;;;;;;;2.02;100.00;103039.34;5056203;28;20665;-72
2023/01/23 02:36:19;;;;;;;26.63;14.77;;;;;;;2.04;100.00;103034.75;5052776;28;20220;-72
2023/01/23 02:38:55;;;;;;;23.95;15.95;;;;;;;1.99;100.00;103031.50;5104650;27;20193;-73
2023/01/23 02:41:29;;;;;;;22.95;15.60;;;;;;;2.04;100.00;103036.56;5097192;27;20194;-73
2023/01/23 02:44:04;;;;;;;22.65;13.35;;;;;;;1.96;100.00;103033.53;5052956;28;20192;-73
2023/01/23 02:46:34;;;;;;;23.27;15.13;;;;;;;1.91;100.00;103039.16;5083197;27;20648;-73
2023/01/23 02:49:04;;;;;;;22.85;13.60;;;;;;;1.88;100.00;103036.69;5087049;27;20607;-71
2023/01/23 02:51:35;;;;;;;23.08;15.05;;;;;;;1.85;100.00;103035.97;5143040;27;20224;-72
2023/01/23 02:54:04;;;;;;;30.88;14.27;;;;;;;1.96;100.00;103042.41;5089453;27;20204;-74
2023/01/23 02:56:37;;;;;;;25.55;14.40;;;;;;;1.91;100.00;103047.16;5060204;28;20224;-73
2023/01/23 03:01:55;;;;;;;31.30;16.02;;;;;;;1.93;100.00;103045.28;5096025;27;20197;-74
2023/01/23 03:04:25;;;;;;;28.02;15.40;;;;;;;1.95;100.00;103054.03;5090882;27;20186;-73
2023/01/23 03:06:58;;;;;;;29.02;16.88;;;;;;;1.94;100.00;103052.31;5102601;27;20228;-71
2023/01/23 03:09:27;;;;;;;23.25;15.60;;;;;;;1.92;100.00;103056.03;5066848;27;20196;-72
2023/01/23 03:11:57;;;;;;;23.30;14.98;;;;;;;1.99;100.00;103058.22;5050346;27;20251;-71
2023/01/23 03:14:31;;;;;;;25.00;15.38;;;;;;;2.00;100.00;103057.28;5132237;27;20193;-72
2023/01/23 03:17:00;;;;;;;28.58;16.80;;;;;;;1.98;100.00;103055.66;5093022;27;20221;-71
2023/01/23 03:19:35;;;;;;;25.92;14.25;;;;;;;2.11;100.00;103062.81;5118898;27;20197;-73
2023/01/23 03:22:06;;;;;;;27.42;16.42;;;;;;;2.13;99.68;103070.75;5052695;27;20230;-73
2023/01/23 03:30:12;;;;;;;29.42;15.55;;;;;;;2.05;99.78;103079.22;5072915;27;20706;-73
2023/01/23 03:31:00;;;;;;;24.85;14.15;;;;;;;1.98;99.85;103077.03;5062610;27;20643;-72
2023/01/23 03:33:30;;;;;;;22.38;13.15;;;;;;;1.96;100.00;103078.91;5121897;27;20265;-71
2023/01/23 03:35:59;;;;;;;26.20;15.93;;;;;;;1.97;100.00;103083.31;5048620;28;20228;-71
2023/01/23 03:38:29;;;;;;;21.20;13.80;;;;;;;2.01;100.00;103092.84;5041755;28;20287;-71
2023/01/23 03:43:46;;;;;;;22.67;14.48;;;;;;;2.03;99.26;103091.78;5065755;27;20201;-72
2023/01/23 03:46:17;;;;;;;27.48;15.30;;;;;;;2.01;99.80;103088.38;5042267;28;20311;-73
2023/01/23 03:48:46;;;;;;;22.38;15.63;;;;;;;1.99;99.84;103095.59;5049913;28;20205;-71
2023/01/23 03:51:16;;;;;;;24.23;16.10;;;;;;;1.96;100.00;103090.47;5046733;28;20237;-70
2023/01/23 03:53:47;;;;;;;23.15;13.80;;;;;;;2.03;100.00;103094.47;5034157;28;20611;-71
2023/01/23 03:56:19;;;;;;;27.15;14.73;;;;;;;2.02;99.61;103090.09;5070018;27;20225;-71
2023/01/23 03:58:48;;;;;;;26.30;15.73;;;;;;;1.95;99.57;103099.41;5050165;28;20192;-71
2023/01/23 04:01:21;;;;;;;28.83;17.15;;;;;;;2.05;99.79;103103.25;5085045;27;20243;-72
2023/01/23 04:03:51;;;;;;;24.55;16.73;;;;;;;2.00;100.00;103109.81;5060878;27;20186;-71
2023/01/23 04:06:25;;;;;;;23.48;16.20;;;;;;;2.02;99.40;103106.13;5060929;27;20245;-72
2023/01/23 04:08:55;;;;;;;27.25;16.98;;;;;;;1.92;99.72;103112.97;5036738;27;20204;-71
2023/01/23 04:11:26;;;;;;;29.33;14.73;;;;;;;1.96;100.00;103113.63;5042351;28;20205;-71
2023/01/23 04:13:58;;;;;;;26.15;17.88;;;;;;;1.93;100.00;103113.84;5032683;27;20209;-72
2023/01/23 04:16:28;;;;;;;32.40;17.05;;;;;;;1.92;100.00;103112.09;5040605;28;20315;-70
2023/01/23 04:18:59;;;;;;;25.88;14.52;;;;;;;1.97;100.00;103113.56;5044829;27;20202;-71
2023/01/23 04:21:29;;;;;;;28.02;15.00;;;;;;;1.95;100.00;103109.25;5063109;27;20217;-71
2023/01/23 04:23:58;;;;;;;26.30;15.00;;;;;;;1.98;100.00;103125.97;5064220;27;20189;-71
2023/01/23 04:26:30;;;;;;;28.98;17.45;;;;;;;1.95;100.00;103115.44;5044755;27;20247;-73
2023/01/23 04:28:59;;;;;;;24.83;16.35;;;;;;;1.92;100.00;103120.97;5052871;27;20663;-72
2023/01/23 04:31:30;;;;;;;30.23;15.00;;;;;;;1.98;99.93;103120.63;5092554;27;20249;-72
2023/01/23 04:34:00;;;;;;;27.27;15.90;;;;;;;1.99;99.77;103121.44;5043285;28;20198;-71
2023/01/23 04:36:29;;;;;;;29.73;17.52;;;;;;;1.97;100.00;103124.25;5049229;28;20215;-72
2023/01/23 04:39:01;;;;;;;24.17;15.05;;;;;;;2.08;100.00;103131.59;5041626;28;20295;-72
2023/01/23 04:41:32;;;;;;;25.77;15.00;;;;;;;2.02;99.85;103131.97;5045506;28;20189;-73
2023/01/23 04:44:25;;;;;;;26.40;17.38;;;;;;;1.90;100.00;103138.91;5113904;27;20193;-72
2023/01/23 04:47:14;;;;;;;32.90;15.40;;;;;;;2.01;100.00;103139.13;5048742;27;20227;-72
2023/01/23 04:49:44;;;;;;;28.52;15.60;;;;;;;2.03;99.84;103123.00;5041437;28;20303;-72
2023/01/23 04:52:13;;;;;;;25.10;16.08;;;;;;;2.00;99.79;103128.53;5043208;28;20246;-71
2023/01/23 04:54:50;;;;;;;23.80;15.27;;;;;;;1.93;99.64;103122.72;5041163;28;20250;-73
2023/01/23 04:57:20;;;;;;;30.65;15.55;;;;;;;1.95;99.93;103127.94;5040449;28;20670;-73
2023/01/23 04:59:54;;;;;;;29.98;16.05;;;;;;;2.08;99.69;103120.94;5049142;28;20283;-72
2023/01/23 05:02:28;;;;;;;24.40;15.80;;;;;;;2.10;99.63;103124.34;5092578;27;20193;-72
2023/01/23 05:04:57;;;;;;;24.52;15.07;;;;;;;2.07;99.33;103122.72;5045511;28;20283;-73
2023/01/23 05:07:27;;;;;;;32.13;16.02;;;;;;;2.02;98.99;103124.81;5040093;27;20193;-73
2023/01/23 05:10:08;;;;;;;24.58;16.58;;;;;;;2.04;99.48;103125.56;5042636;28;20209;-72
2023/01/23 05:12:38;;;;;;;23.88;14.80;;;;;;;2.02;99.36;103130.16;5036443;28;20216;-73
2023/01/23 05:15:09;;;;;;;29.65;16.17;;;;;;;2.03;98.88;103120.34;5049101;27;20189;-73
2023/01/23 05:17:42;;;;;;;28.42;16.70;;;;;;;2.08;99.45;103135.13;5045208;28;20275;-72
2023/01/23 05:20:15;;;;;;;29.13;15.23;;;;;;;2.05;98.99;103132.63;5060103;27;20239;-74
2023/01/23 05:22:52;;;;;;;25.73;15.73;;;;;;;2.02;99.35;103132.84;5112940;27;20223;-72
2023/01/23 05:25:32;;;;;;;30.58;15.90;;;;;;;1.95;99.36;103136.81;5043321;28;20724;-72
2023/01/23 05:28:02;;;;;;;33.03;17.48;;;;;;;1.91;99.63;103139.75;5049083;27;20287;-71
2023/01/23 05:30:32;;;;;;;26.50;17.25;;;;;;;1.91;100.00;103140.63;5048505;27;20199;-74
2023/01/23 05:33:19;;;;;;;23.58;17.08;;;;;;;1.92;100.00;103138.81;5037493;27;20593;-73
2023/01/23 05:35:48;;;;;;;28.02;17.55;;;;;;;1.95;100.00;103142.16;5153769;27;20208;-72
2023/01/23 05:38:18;;;;;;;27.10;17.77;;;;;;;1.98;99.96;103136.66;5081283;27;20233;-73
2023/01/23 05:40:49;;;;;;;29.42;16.65;;;;;;;1.95;99.80;103135.94;5063790;27;20716;-72
2023/01/23 05:43:36;;;;;;;24.73;16.08;;;;;;;1.88;99.88;103124.78;5048650;28;20200;-72
2023/01/23 05:46:41;;;;;;;28.25;15.02;;;;;;;1.81;100.00;103134.09;5043043;28;20244;-72
2023/01/23 05:49:14;;;;;;;27.02;16.30;;;;;;;1.88;100.00;103135.47;5034768;28;20249;-73
2023/01/23 05:51:46;;;;;;;35.33;17.63;;;;;;;2.09;100.00;103139.50;5046175;27;20252;-71
2023/01/23 05:54:21;;;;;;;25.25;16.98;;;;;;;2.14;100.00;103144.56;5041084;27;20603;-74
2023/01/23 05:56:54;;;;;;;26.13;16.23;;;;;;;2.07;99.35;103152.13;5041411;28;20228;-73
2023/01/23 05:59:42;;;;;;;23.67;15.55;;;;;;;1.99;99.40;103154.38;5044551;28;20310;-73
2023/01/23 06:02:30;;;;;;;36.20;19.02;;;;;;;1.98;99.76;103152.66;5057139;27;20237;-73
2023/01/23 06:05:33;;;;;;;26.48;14.75;;;;;;;1.99;99.06;103157.03;5071365;27;20221;-72
2023/01/23 06:08:10;;;;;;;29.58;15.90;;;;;;;1.90;98.85;103173.63;5071569;27;20197;-74
2023/01/23 06:10:39;;;;;;;22.90;14.88;;;;;;;1.94;99.41;103169.81;5073408;27;20253;-73
2023/01/23 06:13:11;;;;;;;30.30;15.43;;;;;;;1.89;99.35;103163.88;5047852;27;20216;-70
2023/01/23 06:15:44;;;;;;;28.35;17.95;;;;;;;1.85;99.68;103173.03;5048461;28;20224;-70
2023/01/23 06:18:14;;;;;;;29.65;18.02;;;;;;;1.90;100.00;103181.63;5049180;27;20241;-73
2023/01/23 06:20:47;;;;;;;33.28;17.88;;;;;;;2.06;100.00;103182.44;5044393;28;20621;-72
2023/01/23 06:23:19;;;;;;;25.45;15.25;;;;;;;2.05;99.42;103180.72;5043837;28;20288;-72
2023/01/23 06:25:48;;;;;;;21.30;14.38;;;;;;;2.00;98.93;103181.94;5051999;27;20223;-72
2023/01/23 06:28:21;;;;;;;26.20;16.60;;;;;;;1.94;99.74;103188.50;5048350;28;20577;-71
2023/01/23 06:30:50;;;;;;;26.13;17.33;;;;;;;1.94;99.79;103191.16;5043214;28;20201;-72
2023/01/23 06:33:30;;;;;;;28.48;17.88;;;;;;;1.95;99.65;103194.69;5058145;28;20221;-73
2023/01/23 06:36:02;;;;;;;28.25;16.83;;;;;;;1.86;100.00;103190.78;5052830;28;20241;-73
2023/01/23 06:38:31;;;;;;;28.48;16.80;;;;;;;1.87;100.00;103189.81;5068568;28;20217;-73
2023/01/23 06:41:02;;;;;;;32.85;17.17;;;;;;;1.93;99.66;103188.59;5077286;27;20270;-72
2023/01/23 06:43:36;;;;;;;27.15;16.45;;;;;;;1.86;100.00;103195.25;5054718;28;20223;-71
2023/01/23 06:46:09;;;;;;;28.70;17.38;;;;;;;1.90;99.60;103186.09;5060064;28;20580;-71
2023/01/23 06:48:39;;;;;;;26.10;18.02;;;;;;;1.84;99.71;103183.81;5072462;27;20197;-71
2023/01/23 06:51:39;;;;;;;34.92;18.23;;;;;;;1.81;100.00;103189.31;5041803;27;20318;-72
2023/01/23 06:54:11;;;;;;;29.33;15.90;;;;;;;1.82;100.00;103199.91;5065757;27;20209;-72
2023/01/23 06:56:41;;;;;;;34.10;16.95;;;;;;;1.81;100.00;103203.53;5038727;28;20718;-71
2023/01/23 06:59:11;;;;;;;29.67;18.67;;;;;;;1.83;100.00;103206.97;5041243;28;20230;-71
2023/01/23 07:01:42;;;;;;;29.08;18.05;;;;;;;1.75;100.00;103212.75;5120164;27;20271;-70
2023/01/23 07:04:23;;;;;;;30.05;17.35;;;;;;;1.82;100.00;103204.38;5113538;28;20198;-70
2023/01/23 07:06:54;;;;;;;22.25;15.43;;;;;;;1.77;100.00;103202.00;5114552;28;20293;-72
2023/01/23 07:09:24;;;;;;;28.35;16.55;;;;;;;1.83;100.00;103201.63;5117065;27;20197;-71
2023/01/23 07:12:09;;;;;;;27.42;15.88;;;;;;;1.80;100.00;103214.28;5125887;27;20255;-71
2023/01/23 07:14:38;;;;;;;25.48;15.40;;;;;;;1.82;100.00;103210.59;5114566;28;20228;-71
2023/01/23 07:17:11;;;;;;;30.92;16.50;;;;;;;1.78;100.00;103219.75;5114677;28;20210;-71
2023/01/23 07:19:43;;;;;;;24.10;15.15;;;;;;;1.79;99.95;103225.94;5111002;28;20226;-72
2023/01/23 07:22:20;;;;;;;29.25;16.27;;;;;;;1.79;100.00;103232.13;5115893;27;20285;-70
2023/01/23 07:24:49;;;;;;;28.42;15.95;;;;;;;1.74;100.00;103235.06;5114642;28;20206;-70
2023/01/23 07:27:18;;;;;;;25.00;16.13;;;;;;;1.80;100.00;103244.53;5121624;27;20293;-71
2023/01/23 07:29:48;;;;;;;40.45;17.88;;;;;;;1.90;99.79;103240.38;5110096;28;20240;-70
2023/01/23 07:32:17;;;;;;;39.83;32.42;;;;;;;1.87;99.79;103240.56;5111821;27;20186;-70
2023/01/23 07:34:53;;;;;;;30.35;18.20;;;;;;;1.87;99.45;103245.03;5109434;28;20193;-71
2023/01/23 07:37:24;;;;;;;31.65;17.75;;;;;;;1.87;99.16;103250.38;5106215;28;20191;-71
2023/01/23 07:39:54;;;;;;;39.15;17.05;;;;;;;1.88;98.91;103239.63;5114080;28;20198;-70
2023/01/23 07:42:23;;;;;;;27.38;15.52;;;;;;;1.92;99.13;103241.16;5114397;28;20267;-71
2023/01/23 07:44:53;;;;;;;22.25;16.88;;;;;;;1.88;98.67;103236.94;5110540;27;20232;-71
2023/01/23 07:47:24;;;;;;;24.65;17.98;;;;;;;1.84;98.87;103245.22;5104607;28;20203;-71
2023/01/23 07:49:53;;;;;;;32.88;20.65;;;;;;;1.85;98.90;103241.56;5113772;28;20256;-70
2023/01/23 07:52:24;;;;;;;28.17;18.55;;;;;;;1.81;98.54;103232.91;5121314;27;20187;-71
2023/01/23 07:54:53;;;;;;;36.80;18.85;;;;;;;1.91;98.68;103236.75;5114216;28;20194;-72
2023/01/23 07:57:24;;;;;;;29.52;18.80;;;;;;;1.79;98.89;103242.81;5109510;28;20198;-71
2023/01/23 07:59:54;;;;;;;24.83;15.05;;;;;;;1.85;99.09;103241.56;5104696;28;20545;-70
2023/01/23 08:02:23;;;;;;;34.50;19.15;;;;;;;1.88;98.70;103238.75;5114011;28;20599;-73
2023/01/23 08:04:53;;;;;;;29.95;18.35;;;;;;;1.90;98.20;103244.84;5112915;27;20183;-72
2023/01/23 08:07:23;;;;;;;28.88;17.80;;;;;;;1.87;98.12;103242.38;5108293;27;20192;-71
2023/01/23 08:09:53;;;;;;;20.52;13.95;;;;;;;1.89;97.70;103233.31;5113302;28;20194;-72
2023/01/23 08:12:22;;;;;;;35.40;19.50;;;;;;;1.77;97.53;103234.03;5111392;28;20265;-71
2023/01/23 08:14:53;;;;;;;23.48;15.90;;;;;;;1.86;97.62;103230.81;5107186;28;20668;-71
2023/01/23 08:17:22;;;;;;;26.02;15.95;;;;;;;1.94;97.63;103233.91;5106529;27;20230;-71
2023/01/23 08:19:52;;;;;;;29.10;16.63;;;;;;;1.94;97.07;103235.69;5122950;27;20191;-71
2023/01/23 08:22:21;;;;;;;26.27;17.15;;;;;;;1.88;97.03;103234.28;5105580;28;20241;-70
2023/01/23 08:24:54;;;;;;;31.20;18.58;;;;;;;2.01;97.27;103237.09;5108842;28;20191;-73
2023/01/23 08:27:25;;;;;;;35.40;19.52;;;;;;;2.02;97.14;103241.47;5114665;27;20228;-70
2023/01/23 08:30:01;;;;;;;27.88;16.40;;;;;;;2.06;97.28;103249.22;5112467;27;20198;-71
2023/01/23 08:32:31;;;;;;;30.33;19.05;;;;;;;2.11;95.95;103257.81;5109598;28;20200;-72
2023/01/23 08:35:06;;;;;;;35.92;17.95;;;;;;;2.02;95.68;103255.69;5110862;28;20203;-69
2023/01/23 08:37:36;;;;;;;32.35;17.80;;;;;;;2.02;96.07;103260.19;5111530;27;20190;-72
2023/01/23 08:43:50;;;;;;;32.78;17.60;;;;;;;1.99;95.87;103271.88;5103420;28;20251;-72
2023/01/23 08:46:19;;;;;;;29.35;18.92;;;;;;;2.10;96.24;103287.28;5114538;27;20759;-71
2023/01/23 08:48:49;;;;;;;31.45;18.33;;;;;;;2.11;95.85;103287.22;5115148;27;20205;-70
2023/01/23 08:51:18;;;;;;;32.53;18.30;;;;;;;2.17;95.61;103294.88;5112118;28;20194;-70
2023/01/23 08:53:50;;;;;;;28.05;17.15;;;;;;;2.20;95.37;103293.81;5110813;28;20210;-70
2023/01/23 08:56:21;;;;;;;30.75;17.17;;;;;;;2.15;94.92;103304.78;5101698;27;20203;-72
2023/01/23 08:58:52;;;;;;;28.67;15.05;;;;;;;2.30;94.74;103310.16;5115705;27;20665;-71
2023/01/23 09:01:25;;;;;;;23.92;15.32;;;;;;;2.30;93.72;103311.03;5117459;27;20194;-70
2023/01/23 09:03:56;;;;;;;32.53;17.23;;;;;;;2.26;94.17;103313.97;5111999;27;20187;-71
2023/01/23 09:06:25;;;;;;;30.48;17.55;;;;;;;2.31;93.92;103317.25;5117326;27;20215;-73
2023/01/23 09:08:57;;;;;;;30.48;18.10;;;;;;;2.38;94.04;103316.78;5124852;27;20182;-72
2023/01/23 09:11:26;;;;;;;29.50;19.17;;;;;;;2.26;94.25;103322.00;5119052;27;20194;-70
2023/01/23 09:14:00;;;;;;;36.88;19.65;;;;;;;2.40;94.13;103327.38;5124942;27;20724;-73
2023/01/23 09:16:29;;;;;;;24.50;17.20;;;;;;;2.60;93.21;103335.09;5128490;27;20214;-71
2023/01/23 09:18:58;;;;;;;32.70;16.15;;;;;;;2.43;92.56;103340.56;5096101;28;20286;-71
2023/01/23 09:21:27;;;;;;;29.65;17.40;;;;;;;2.44;93.02;103336.94;5112671;28;20241;-71
2023/01/23 09:23:59;;;;;;;27.05;16.85;;;;;;;2.42;92.71;103336.19;5099063;28;20295;-71
2023/01/23 09:26:29;;;;;;;27.40;16.45;;;;;;;2.46;93.05;103345.75;5116831;27;20305;-71
2023/01/23 09:29:01;;;;;;;28.40;18.30;;;;;;;2.43;92.88;103348.56;5106451;28;20244;-68
2023/01/23 09:31:33;;;;;;;25.33;17.00;;;;;;;2.48;92.97;103339.34;5110512;27;20250;-70
2023/01/23 09:34:03;;;;;;;27.08;17.08;;;;;;;2.52;93.02;103340.88;5097877;28;20203;-69
2023/01/23 09:36:33;;;;;;;31.33;17.55;;;;;;;2.49;92.90;103338.41;5114662;27;20218;-75
2023/01/23 09:39:16;;;;;;;40.85;18.58;;;;;;;2.62;92.71;103346.53;5114242;27;20202;-75
2023/01/23 09:41:46;;;;;;;29.30;16.75;;;;;;;2.61;92.14;103343.00;5116132;28;20206;-74
2023/01/23 09:44:23;;;;;;;28.42;18.00;;;;;;;2.56;91.73;103349.59;5111950;28;20186;-74
2023/01/23 09:46:56;;;;;;;30.45;18.45;;;;;;;2.48;92.20;103343.81;5111459;28;20218;-75
2023/01/23 09:49:28;;;;;;;30.40;19.33;;;;;;;2.52;92.37;103345.38;5114163;28;20567;-74
2023/01/23 09:52:05;;;;;;;34.88;18.45;;;;;;;2.58;92.29;103343.19;5106615;28;20201;-76
2023/01/23 09:54:46;;;;;;;28.67;18.90;;;;;;;2.63;92.06;103349.13;5119766;28;20254;-74
2023/01/23 09:57:19;;;;;;;24.48;16.67;;;;;;;2.79;90.77;103358.91;5106920;28;20578;-73
2023/01/23 09:59:55;;;;;;;28.80;17.98;;;;;;;2.68;91.38;103350.66;5113795;28;20208;-74
2023/01/23 10:02:29;;;;;;;26.10;17.27;;;;;;;2.77;90.96;103356.34;5118439;28;20207;-74
2023/01/23 10:05:01;;;;;;;28.02;17.33;;;;;;;2.85;90.41;103354.06;5098593;28;20195;-75
2023/01/23 10:07:53;;;;;;;31.40;19.25;;;;;;;2.84;90.58;103362.19;5117259;28;20190;-74
2023/01/23 10:10:49;;;;;;;24.02;14.63;;;;;;;2.67;90.81;103352.47;5116762;28;20190;-74
2023/01/23 10:13:47;;;;;;;24.75;15.65;;;;;;;2.67;91.34;103365.84;5121194;27;20201;-73
2023/01/23 10:16:42;;;;;;;30.02;16.83;;;;;;;2.63;91.01;103364.31;5118347;28;20210;-74
2023/01/23 10:19:36;;;;;;;27.45;16.95;;;;;;;2.65;91.57;103362.41;5119855;27;20207;-77
2023/01/23 10:22:24;;;;;;;25.05;16.17;;;;;;;2.72;90.73;103363.75;5118687;28;20267;-75
2023/01/23 10:24:58;;;;;;;23.95;16.15;;;;;;;2.67;90.87;103356.97;5119060;28;20671;-76
2023/01/23 10:27:37;;;;;;;29.10;16.70;;;;;;;2.55;90.85;103362.09;5118901;27;20281;-74
2023/01/23 10:30:24;;;;;;;32.40;17.95;;;;;;;2.45;91.76;103354.72;5122396;27;20195;-74
2023/01/23 10:32:59;;;;;;;28.65;18.33;;;;;;;2.54;91.77;103370.22;5118313;28;20191;-74
2023/01/23 10:35:36;;;;;;;26.15;16.80;;;;;;;2.56;91.66;103368.31;5119588;27;20221;-75
2023/01/23 10:38:33;;;;;;;30.42;17.00;;;;;;;2.64;90.96;103363.38;5102983;28;20243;-74
2023/01/23 10:41:18;;;;;;;24.65;16.15;;;;;;;2.68;91.39;103367.56;5122007;27;20648;-74
2023/01/23 10:43:53;;;;;;;26.20;16.35;;;;;;;2.77;91.83;103366.16;5116346;27;20256;-74
2023/01/23 10:46:30;;;;;;;24.52;14.10;;;;;;;2.79;90.22;103369.63;5110830;28;20219;-75
2023/01/23 10:49:06;;;;;;;24.60;16.40;;;;;;;2.90;89.85;103372.53;5124953;27;20185;-73
2023/01/23 10:51:46;;;;;;;34.10;19.35;;;;;;;2.96;89.16;103367.63;5115622;28;20248;-74
2023/01/23 10:54:25;;;;;;;24.42;16.35;;;;;;;2.80;89.79;103368.69;5112219;28;20210;-73
2023/01/23 10:57:06;;;;;;;24.50;15.52;;;;;;;2.78;90.04;103363.41;5111633;27;20206;-74
2023/01/23 10:59:40;;;;;;;27.45;17.23;;;;;;;2.95;89.67;103363.25;5122510;27;20198;-74
2023/01/23 11:02:26;;;;;;;27.42;16.98;;;;;;;2.89;89.23;103368.97;5116407;28;20219;-74
2023/01/23 11:04:59;;;;;;;30.08;16.38;;;;;;;2.77;89.18;103366.16;5109589;27;20182;-75
2023/01/23 11:07:36;;;;;;;30.92;18.42;;;;;;;2.73;90.05;103365.50;5121594;27;20195;-74
2023/01/23 11:10:21;;;;;;;21.67;15.98;;;;;;;2.71;90.04;103367.38;5115121;27;20650;-76
2023/01/23 11:12:57;;;;;;;28.05;16.58;;;;;;;2.67;89.84;103368.53;5114729;27;20183;-74
2023/01/23 11:15:32;;;;;;;25.35;14.80;;;;;;;2.61;90.56;103368.91;5114865;28;20222;-75
2023/01/23 11:18:22;;;;;;;37.95;15.65;;;;;;;2.61;90.56;103358.22;5096832;28;20195;-75
2023/01/23 11:20:55;;;;;;;23.27;16.08;;;;;;;2.53;90.36;103364.00;5118948;27;20674;-74
2023/01/23 11:23:28;;;;;;;22.15;15.15;;;;;;;2.57;89.77;103359.31;5123108;27;20242;-74
2023/01/23 11:25:58;;;;;;;26.83;16.98;;;;;;;2.55;90.04;103355.91;5121619;27;20724;-73
2023/01/23 11:28:40;;;;;;;29.80;18.58;;;;;;;2.54;90.41;103363.06;5124473;27;20208;-73
2023/01/23 11:31:13;;;;;;;27.52;16.90;;;;;;;2.53;90.61;103357.78;5112801;28;20621;-75
2023/01/23 11:33:52;;;;;;;27.48;17.60;;;;;;;2.51;91.41;103359.72;5107661;27;20235;-73
2023/01/23 11:36:45;;;;;;;31.95;17.23;;;;;;;2.68;90.36;103364.91;5122200;27;20213;-74
2023/01/23 11:39:36;;;;;;;22.42;17.13;;;;;;;2.70;90.02;103357.66;5105300;28;20249;-74
2023/01/23 11:42:12;;;;;;;28.65;17.33;;;;;;;2.67;89.37;103355.16;5109627;28;20214;-73
2023/01/23 11:44:42;;;;;;;31.00;17.00;;;;;;;2.69;89.70;103355.06;5119733;27;20712;-74
2023/01/23 11:47:57;;;;;;;30.33;17.38;;;;;;;2.66;90.11;103353.47;5132735;27;20217;-75
2023/01/23 11:50:42;;;;;;;25.70;14.15;;;;;;;2.74;89.88;103345.81;5110764;28;20211;-75
2023/01/23 11:53:34;;;;;;;28.67;18.00;;;;;;;2.66;89.86;103342.75;5135500;27;20732;-73
2023/01/23 11:56:46;;;;;;;23.98;16.30;;;;;;;2.60;89.59;103348.47;5122304;28;20226;-73
2023/01/23 11:59:44;;;;;;;26.55;17.17;;;;;;;2.50;90.45;103342.81;5110254;28;20271;-76
2023/01/23 12:02:44;;;;;;;23.10;16.15;;;;;;;2.56;89.83;103339.78;5113115;28;20191;-73
2023/01/23 12:05:45;;;;;;;20.17;15.05;;;;;;;2.52;89.52;103327.50;5120676;28;20223;-74